sensor_id;sensor_type;location;lat;lon;timestamp;pressure;altitude;pressure_sealevel;temperature;humidity
57574;BME280;63722;48.858;21.906;2023-03-15T00:00:53;97142.22;;;21.69;39.59
57574;BME280;63722;48.858;21.906;2023-03-15T00:03:19;97141.41;;;21.69;39.23
57574;BME280;63722;48.858;21.906;2023-03-15T00:05:47;97140.31;;;21.70;39.33
57574;BME280;63722;48.858;21.906;2023-03-15T00:08:13;97139.25;;;21.71;39.28
57574;BME280;63722;48.858;21.906;2023-03-15T00:10:43;97144.59;;;21.71;39.33
57574;BME280;63722;48.858;21.906;2023-03-15T00:13:10;97145.66;;;21.70;39.42
57574;BME280;63722;48.858;21.906;2023-03-15T00:15:36;97139.31;;;21.66;39.14
57574;BME280;63722;48.858;21.906;2023-03-15T00:18:08;97141.19;;;21.65;39.16
57574;BME280;63722;48.858;21.906;2023-03-15T00:20:35;97137.44;;;21.66;39.35
57574;BME280;63722;48.858;21.906;2023-03-15T00:23:01;97133.47;;;21.63;39.12
57574;BME280;63722;48.858;21.906;2023-03-15T00:25:27;97138.81;;;21.63;39.29
57574;BME280;63722;48.858;21.906;2023-03-15T00:27:52;97137.75;;;21.64;39.40
57574;BME280;63722;48.858;21.906;2023-03-15T00:30:17;97136.16;;;21.63;39.16
57574;BME280;63722;48.858;21.906;2023-03-15T00:32:43;97122.81;;;21.63;39.21
57574;BME280;63722;48.858;21.906;2023-03-15T00:35:10;97125.97;;;21.66;39.19
57574;BME280;63722;48.858;21.906;2023-03-15T00:37:37;97121.22;;;21.62;39.40
57574;BME280;63722;48.858;21.906;2023-03-15T00:40:04;97128.44;;;21.62;39.53
57574;BME280;63722;48.858;21.906;2023-03-15T00:42:31;97121.78;;;21.59;39.55
57574;BME280;63722;48.858;21.906;2023-03-15T00:44:58;97124.97;;;21.61;39.10
57574;BME280;63722;48.858;21.906;2023-03-15T00:47:24;97127.66;;;21.61;39.29
57574;BME280;63722;48.858;21.906;2023-03-15T00:49:49;97133.25;;;21.60;39.27
57574;BME280;63722;48.858;21.906;2023-03-15T00:52:16;97128.22;;;21.58;39.35
57574;BME280;63722;48.858;21.906;2023-03-15T00:54:41;97123.19;;;21.57;39.32
57574;BME280;63722;48.858;21.906;2023-03-15T00:57:07;97118.63;;;21.57;39.38
57574;BME280;63722;48.858;21.906;2023-03-15T00:59:33;97126.13;;;21.55;39.06
57574;BME280;63722;48.858;21.906;2023-03-15T01:02:01;97119.69;;;21.56;39.23
57574;BME280;63722;48.858;21.906;2023-03-15T01:04:27;97114.88;;;21.58;39.17
57574;BME280;63722;48.858;21.906;2023-03-15T01:06:53;97111.69;;;21.56;39.29
57574;BME280;63722;48.858;21.906;2023-03-15T01:09:18;97117.59;;;21.53;39.05
57574;BME280;63722;48.858;21.906;2023-03-15T01:11:44;97113.56;;;21.56;39.04
57574;BME280;63722;48.858;21.906;2023-03-15T01:14:09;97112.78;;;21.55;39.16
57574;BME280;63722;48.858;21.906;2023-03-15T01:16:35;97117.59;;;21.53;39.24
57574;BME280;63722;48.858;21.906;2023-03-15T01:19:00;97125.31;;;21.55;38.94
57574;BME280;63722;48.858;21.906;2023-03-15T01:21:25;97133.84;;;21.57;39.09
57574;BME280;63722;48.858;21.906;2023-03-15T01:23:52;97142.13;;;21.55;39.12
57574;BME280;63722;48.858;21.906;2023-03-15T01:26:18;97145.88;;;21.54;39.07
57574;BME280;63722;48.858;21.906;2023-03-15T01:28:43;97154.44;;;21.51;39.19
57574;BME280;63722;48.858;21.906;2023-03-15T01:31:17;97160.81;;;21.55;39.11
57574;BME280;63722;48.858;21.906;2023-03-15T01:33:42;97164.81;;;21.53;38.82
57574;BME280;63722;48.858;21.906;2023-03-15T01:36:09;97170.16;;;21.53;39.16
57574;BME280;63722;48.858;21.906;2023-03-15T01:38:35;97179.78;;;21.49;39.03
57574;BME280;63722;48.858;21.906;2023-03-15T01:41:01;97176.28;;;21.53;39.05
57574;BME280;63722;48.858;21.906;2023-03-15T01:43:28;97173.41;;;21.50;39.23
57574;BME280;63722;48.858;21.906;2023-03-15T01:53:44;97184.56;;;21.52;39.03
57574;BME280;63722;48.858;21.906;2023-03-15T01:56:12;97189.41;;;21.50;39.16
57574;BME280;63722;48.858;21.906;2023-03-15T01:58:39;97197.66;;;21.48;38.98
57574;BME280;63722;48.858;21.906;2023-03-15T02:01:06;97195.00;;;21.48;39.03
57574;BME280;63722;48.858;21.906;2023-03-15T02:03:35;97192.06;;;21.50;39.12
57574;BME280;63722;48.858;21.906;2023-03-15T02:06:06;97199.28;;;21.49;39.10
57574;BME280;63722;48.858;21.906;2023-03-15T02:08:37;97208.31;;;21.48;39.28
57574;BME280;63722;48.858;21.906;2023-03-15T02:11:04;97206.50;;;21.43;39.06
57574;BME280;63722;48.858;21.906;2023-03-15T02:13:32;97216.91;;;21.45;39.18
57574;BME280;63722;48.858;21.906;2023-03-15T02:15:58;97222.22;;;21.45;39.13
57574;BME280;63722;48.858;21.906;2023-03-15T02:18:24;97224.63;;;21.46;38.78
57574;BME280;63722;48.858;21.906;2023-03-15T02:23:25;97214.50;;;21.43;39.09
57574;BME280;63722;48.858;21.906;2023-03-15T02:25:54;97220.63;;;21.44;39.29
57574;BME280;63722;48.858;21.906;2023-03-15T02:28:22;97223.56;;;21.42;39.03
57574;BME280;63722;48.858;21.906;2023-03-15T02:30:48;97228.91;;;21.42;38.98
57574;BME280;63722;48.858;21.906;2023-03-15T02:33:21;97230.78;;;21.42;39.16
57574;BME280;63722;48.858;21.906;2023-03-15T02:35:49;97236.91;;;21.42;38.96
57574;BME280;63722;48.858;21.906;2023-03-15T02:38:15;97230.28;;;21.40;39.01
57574;BME280;63722;48.858;21.906;2023-03-15T02:40:40;97226.31;;;21.37;39.23
57574;BME280;63722;48.858;21.906;2023-03-15T02:43:13;97232.69;;;21.41;38.99
57574;BME280;63722;48.858;21.906;2023-03-15T02:45:40;97233.25;;;21.38;39.19
57574;BME280;63722;48.858;21.906;2023-03-15T02:48:08;97236.75;;;21.34;39.11
57574;BME280;63722;48.858;21.906;2023-03-15T02:50:35;97236.19;;;21.37;39.09
57574;BME280;63722;48.858;21.906;2023-03-15T02:53:00;97248.16;;;21.39;38.74
57574;BME280;63722;48.858;21.906;2023-03-15T02:55:28;97247.38;;;21.39;38.91
57574;BME280;63722;48.858;21.906;2023-03-15T03:00:19;97250.03;;;21.39;38.95
57574;BME280;63722;48.858;21.906;2023-03-15T03:02:46;97256.97;;;21.40;39.14
57574;BME280;63722;48.858;21.906;2023-03-15T03:05:13;97259.66;;;21.35;38.95
57574;BME280;63722;48.858;21.906;2023-03-15T03:12:33;97266.38;;;21.32;39.10
57574;BME280;63722;48.858;21.906;2023-03-15T03:14:58;97277.81;;;21.33;38.99
57574;BME280;63722;48.858;21.906;2023-03-15T03:17:24;97276.75;;;21.34;39.08
57574;BME280;63722;48.858;21.906;2023-03-15T03:19:49;97282.38;;;21.32;38.77
57574;BME280;63722;48.858;21.906;2023-03-15T03:22:16;97282.38;;;21.32;39.14
57574;BME280;63722;48.858;21.906;2023-03-15T03:24:41;97296.50;;;21.33;38.78
57574;BME280;63722;48.858;21.906;2023-03-15T03:27:11;97305.00;;;21.35;38.81
57574;BME280;63722;48.858;21.906;2023-03-15T03:29:39;97315.66;;;21.35;39.09
57574;BME280;63722;48.858;21.906;2023-03-15T03:32:04;97318.88;;;21.32;39.03
57574;BME280;63722;48.858;21.906;2023-03-15T03:34:30;97326.88;;;21.32;38.89
57574;BME280;63722;48.858;21.906;2023-03-15T03:36:56;97335.94;;;21.36;38.86
57574;BME280;63722;48.858;21.906;2023-03-15T03:39:22;97338.66;;;21.31;38.79
57574;BME280;63722;48.858;21.906;2023-03-15T03:41:47;97345.03;;;21.29;39.20
57574;BME280;63722;48.858;21.906;2023-03-15T03:44:12;97355.19;;;21.27;39.05
57574;BME280;63722;48.858;21.906;2023-03-15T03:46:38;97365.31;;;21.31;38.90
57574;BME280;63722;48.858;21.906;2023-03-15T03:49:03;97374.88;;;21.32;38.95
57574;BME280;63722;48.858;21.906;2023-03-15T03:51:29;97380.50;;;21.30;38.97
57574;BME280;63722;48.858;21.906;2023-03-15T03:53:55;97388.25;;;21.26;38.98
57574;BME280;63722;48.858;21.906;2023-03-15T03:56:20;97385.59;;;21.26;38.94
57574;BME280;63722;48.858;21.906;2023-03-15T03:58:45;97397.88;;;21.27;39.01
57574;BME280;63722;48.858;21.906;2023-03-15T04:01:11;97400.81;;;21.26;39.00
57574;BME280;63722;48.858;21.906;2023-03-15T04:03:36;97401.59;;;21.26;38.92
57574;BME280;63722;48.858;21.906;2023-03-15T04:06:01;97407.47;;;21.23;39.20
57574;BME280;63722;48.858;21.906;2023-03-15T04:08:29;97415.72;;;21.27;39.02
57574;BME280;63722;48.858;21.906;2023-03-15T04:10:56;97420.75;;;21.28;38.87
57574;BME280;63722;48.858;21.906;2023-03-15T04:13:23;97428.81;;;21.23;38.90
57574;BME280;63722;48.858;21.906;2023-03-15T04:15:49;97430.41;;;21.24;39.06
57574;BME280;63722;48.858;21.906;2023-03-15T04:18:15;97420.75;;;21.28;38.84
57574;BME280;63722;48.858;21.906;2023-03-15T04:20:41;97431.44;;;21.28;38.96
57574;BME280;63722;48.858;21.906;2023-03-15T04:23:15;97424.97;;;21.35;38.78
57574;BME280;63722;48.858;21.906;2023-03-15T04:25:46;97444.41;;;21.40;38.48
57574;BME280;63722;48.858;21.906;2023-03-15T04:28:12;97443.06;;;21.43;38.50
57574;BME280;63722;48.858;21.906;2023-03-15T04:30:38;97439.56;;;21.48;38.46
57574;BME280;63722;48.858;21.906;2023-03-15T04:33:04;97444.88;;;21.53;38.62
57574;BME280;63722;48.858;21.906;2023-03-15T04:35:32;97451.28;;;21.52;38.48
57574;BME280;63722;48.858;21.906;2023-03-15T04:37:58;97443.81;;;21.54;38.56
57574;BME280;63722;48.858;21.906;2023-03-15T04:40:24;97445.38;;;21.55;38.41
57574;BME280;63722;48.858;21.906;2023-03-15T04:42:50;97454.22;;;21.55;38.44
57574;BME280;63722;48.858;21.906;2023-03-15T04:45:17;97459.53;;;21.55;38.41
57574;BME280;63722;48.858;21.906;2023-03-15T04:47:42;97459.50;;;21.60;38.32
57574;BME280;63722;48.858;21.906;2023-03-15T04:50:08;97466.97;;;21.58;38.32
57574;BME280;63722;48.858;21.906;2023-03-15T04:52:34;97475.00;;;21.58;38.20
57574;BME280;63722;48.858;21.906;2023-03-15T04:54:59;97477.41;;;21.55;38.38
57574;BME280;63722;48.858;21.906;2023-03-15T04:57:25;97494.22;;;21.55;38.32
57574;BME280;63722;48.858;21.906;2023-03-15T04:59:50;97497.13;;;21.59;38.49
57574;BME280;63722;48.858;21.906;2023-03-15T05:02:16;97496.06;;;21.60;38.51
57574;BME280;63722;48.858;21.906;2023-03-15T05:04:41;97511.22;;;21.64;38.18
57574;BME280;63722;48.858;21.906;2023-03-15T05:07:07;97512.84;;;21.60;38.07
57574;BME280;63722;48.858;21.906;2023-03-15T05:09:33;97510.41;;;21.64;38.20
57574;BME280;63722;48.858;21.906;2023-03-15T05:12:03;97516.00;;;21.62;38.36
57574;BME280;63722;48.858;21.906;2023-03-15T05:14:29;97526.13;;;21.71;38.06
57574;BME280;63722;48.858;21.906;2023-03-15T05:16:54;97531.97;;;21.73;37.91
57574;BME280;63722;48.858;21.906;2023-03-15T05:19:22;97533.75;;;21.82;37.86
57574;BME280;63722;48.858;21.906;2023-03-15T05:21:48;97534.56;;;21.78;37.98
57574;BME280;63722;48.858;21.906;2023-03-15T05:24:14;97541.75;;;21.82;37.93
57574;BME280;63722;48.858;21.906;2023-03-15T05:26:39;97539.34;;;21.86;37.97
57574;BME280;63722;48.858;21.906;2023-03-15T05:29:05;97545.19;;;21.88;37.82
57574;BME280;63722;48.858;21.906;2023-03-15T05:31:30;97547.28;;;21.91;37.95
57574;BME280;63722;48.858;21.906;2023-03-15T05:34:01;97556.34;;;21.90;38.09
57574;BME280;63722;48.858;21.906;2023-03-15T05:36:28;97555.00;;;21.93;37.84
57574;BME280;63722;48.858;21.906;2023-03-15T05:38:55;97561.91;;;21.99;37.38
57574;BME280;63722;48.858;21.906;2023-03-15T05:41:21;97562.19;;;21.97;37.61
57574;BME280;63722;48.858;21.906;2023-03-15T05:43:49;97574.47;;;21.98;37.73
57574;BME280;63722;48.858;21.906;2023-03-15T05:46:15;97583.25;;;21.99;37.87
57574;BME280;63722;48.858;21.906;2023-03-15T05:48:41;97580.25;;;22.06;37.75
57574;BME280;63722;48.858;21.906;2023-03-15T05:51:06;97595.72;;;22.09;37.68
57574;BME280;63722;48.858;21.906;2023-03-15T05:53:32;97604.78;;;22.13;37.59
57574;BME280;63722;48.858;21.906;2023-03-15T05:55:58;97601.81;;;22.14;37.68
57574;BME280;63722;48.858;21.906;2023-03-15T05:58:23;97607.94;;;22.15;37.77
57574;BME280;63722;48.858;21.906;2023-03-15T06:00:49;97614.09;;;22.15;37.46
57574;BME280;63722;48.858;21.906;2023-03-15T06:03:15;97614.88;;;22.16;37.70
57574;BME280;63722;48.858;21.906;2023-03-15T06:05:41;97615.94;;;22.20;37.74
57574;BME280;63722;48.858;21.906;2023-03-15T06:08:07;97619.09;;;22.22;37.53
57574;BME280;63722;48.858;21.906;2023-03-15T06:10:33;97628.44;;;22.25;37.41
57574;BME280;63722;48.858;21.906;2023-03-15T06:12:58;97625.25;;;22.23;37.53
57574;BME280;63722;48.858;21.906;2023-03-15T06:15:24;97632.94;;;22.29;37.39
57574;BME280;63722;48.858;21.906;2023-03-15T06:17:50;97635.09;;;22.32;37.27
57574;BME280;63722;48.858;21.906;2023-03-15T06:20:15;97638.28;;;22.29;37.44
57574;BME280;63722;48.858;21.906;2023-03-15T06:22:41;97640.44;;;22.32;37.50
57574;BME280;63722;48.858;21.906;2023-03-15T06:25:10;97642.03;;;22.28;37.42
57574;BME280;63722;48.858;21.906;2023-03-15T06:27:36;97644.16;;;22.31;37.50
57574;BME280;63722;48.858;21.906;2023-03-15T06:30:02;97660.41;;;22.35;37.04
57574;BME280;63722;48.858;21.906;2023-03-15T06:32:28;97652.69;;;22.33;37.23
57574;BME280;63722;48.858;21.906;2023-03-15T06:34:53;97662.59;;;22.33;37.46
57574;BME280;63722;48.858;21.906;2023-03-15T06:37:19;97662.03;;;22.36;37.52
57574;BME280;63722;48.858;21.906;2023-03-15T06:39:46;97663.78;;;22.11;37.89
57574;BME280;63722;48.858;21.906;2023-03-15T06:42:11;97679.28;;;22.09;38.52
57574;BME280;63722;48.858;21.906;2023-03-15T06:44:40;97680.88;;;22.10;38.39
57574;BME280;63722;48.858;21.906;2023-03-15T06:47:06;97682.25;;;22.08;38.54
57574;BME280;63722;48.858;21.906;2023-03-15T06:49:32;97703.34;;;22.04;38.75
57574;BME280;63722;48.858;21.906;2023-03-15T06:51:58;97700.72;;;21.99;38.51
57574;BME280;63722;48.858;21.906;2023-03-15T06:54:24;97705.53;;;21.97;38.53
57574;BME280;63722;48.858;21.906;2023-03-15T06:56:49;97708.22;;;21.92;38.70
57574;BME280;63722;48.858;21.906;2023-03-15T06:59:15;97710.06;;;21.96;38.74
57574;BME280;63722;48.858;21.906;2023-03-15T07:01:41;97712.16;;;22.05;38.60
57574;BME280;63722;48.858;21.906;2023-03-15T07:04:06;97718.84;;;22.02;38.54
57574;BME280;63722;48.858;21.906;2023-03-15T07:06:32;97723.94;;;21.93;38.91
57574;BME280;63722;48.858;21.906;2023-03-15T07:08:58;97721.00;;;21.95;38.98
57574;BME280;63722;48.858;21.906;2023-03-15T07:11:23;97723.47;;;21.86;38.94
57574;BME280;63722;48.858;21.906;2023-03-15T07:13:49;97732.00;;;21.88;39.04
57574;BME280;63722;48.858;21.906;2023-03-15T07:16:14;97730.16;;;21.84;39.03
57574;BME280;63722;48.858;21.906;2023-03-15T07:18:40;97738.94;;;21.84;39.04
57574;BME280;63722;48.858;21.906;2023-03-15T07:21:05;97737.63;;;21.87;38.84
57574;BME280;63722;48.858;21.906;2023-03-15T07:23:32;97745.63;;;21.87;38.98
57574;BME280;63722;48.858;21.906;2023-03-15T07:25:58;97748.84;;;21.84;39.20
57574;BME280;63722;48.858;21.906;2023-03-15T07:28:24;97742.91;;;21.92;39.05
57574;BME280;63722;48.858;21.906;2023-03-15T07:30:59;97737.84;;;21.95;39.17
57574;BME280;63722;48.858;21.906;2023-03-15T07:33:27;97745.06;;;21.90;39.08
57574;BME280;63722;48.858;21.906;2023-03-15T07:35:53;97735.72;;;21.87;39.37
57574;BME280;63722;48.858;21.906;2023-03-15T07:38:20;97740.03;;;21.83;39.37
57574;BME280;63722;48.858;21.906;2023-03-15T07:40:46;97741.09;;;21.82;39.45
57574;BME280;63722;48.858;21.906;2023-03-15T07:43:12;97742.16;;;21.81;39.56
57574;BME280;63722;48.858;21.906;2023-03-15T07:45:37;97754.22;;;21.78;39.52
57574;BME280;63722;48.858;21.906;2023-03-15T07:48:03;97758.72;;;21.78;39.49
57574;BME280;63722;48.858;21.906;2023-03-15T07:50:28;97759.28;;;21.75;39.59
57574;BME280;63722;48.858;21.906;2023-03-15T07:52:53;97763.31;;;21.72;39.41
57574;BME280;63722;48.858;21.906;2023-03-15T07:55:19;97770.22;;;21.78;39.40
57574;BME280;63722;48.858;21.906;2023-03-15T07:57:44;97772.06;;;21.78;39.51
57574;BME280;63722;48.858;21.906;2023-03-15T08:00:10;97770.50;;;21.77;39.46
57574;BME280;63722;48.858;21.906;2023-03-15T08:02:38;97773.16;;;21.77;39.73
57574;BME280;63722;48.858;21.906;2023-03-15T08:05:03;97783.28;;;21.80;39.46
57574;BME280;63722;48.858;21.906;2023-03-15T08:07:29;97786.47;;;21.82;39.57
57574;BME280;63722;48.858;21.906;2023-03-15T08:09:55;97783.81;;;21.82;39.69
57574;BME280;63722;48.858;21.906;2023-03-15T08:12:22;97782.97;;;21.87;39.48
57574;BME280;63722;48.858;21.906;2023-03-15T08:14:48;97788.53;;;22.00;39.35
57574;BME280;63722;48.858;21.906;2023-03-15T08:17:14;97786.44;;;21.92;39.09
57574;BME280;63722;48.858;21.906;2023-03-15T08:19:40;97793.06;;;22.00;39.40
57574;BME280;63722;48.858;21.906;2023-03-15T08:22:06;97793.88;;;22.00;39.17
57574;BME280;63722;48.858;21.906;2023-03-15T08:24:32;97803.44;;;22.07;39.45
57574;BME280;63722;48.858;21.906;2023-03-15T08:26:57;97801.06;;;22.05;39.31
57574;BME280;63722;48.858;21.906;2023-03-15T08:29:23;97800.78;;;22.07;39.27
57574;BME280;63722;48.858;21.906;2023-03-15T08:31:48;97806.94;;;22.02;39.57
57574;BME280;63722;48.858;21.906;2023-03-15T08:34:14;97811.75;;;22.00;39.36
57574;BME280;63722;48.858;21.906;2023-03-15T08:36:40;97816.78;;;22.07;39.52
57574;BME280;63722;48.858;21.906;2023-03-15T08:39:05;97814.63;;;22.09;39.26
57574;BME280;63722;48.858;21.906;2023-03-15T08:41:33;97818.41;;;22.03;39.49
57574;BME280;63722;48.858;21.906;2023-03-15T08:43:59;97827.72;;;22.10;39.35
57574;BME280;63722;48.858;21.906;2023-03-15T08:46:26;97822.13;;;22.07;39.44
57574;BME280;63722;48.858;21.906;2023-03-15T08:48:51;97825.59;;;22.12;39.25
57574;BME280;63722;48.858;21.906;2023-03-15T08:51:17;97826.97;;;22.05;39.35
57574;BME280;63722;48.858;21.906;2023-03-15T08:53:44;97837.38;;;22.06;39.65
57574;BME280;63722;48.858;21.906;2023-03-15T08:56:09;97834.66;;;22.11;39.42
57574;BME280;63722;48.858;21.906;2023-03-15T08:58:35;97840.03;;;22.06;39.52
57574;BME280;63722;48.858;21.906;2023-03-15T09:01:00;97839.72;;;22.13;39.54
57574;BME280;63722;48.858;21.906;2023-03-15T09:03:26;97843.47;;;22.12;39.43
57574;BME280;63722;48.858;21.906;2023-03-15T09:05:56;97849.91;;;22.06;39.61
57574;BME280;63722;48.858;21.906;2023-03-15T09:08:21;97852.56;;;22.11;39.52
57574;BME280;63722;48.858;21.906;2023-03-15T09:10:55;97852.59;;;22.00;39.30
57574;BME280;63722;48.858;21.906;2023-03-15T09:13:21;97863.50;;;22.04;39.62
57574;BME280;63722;48.858;21.906;2023-03-15T09:15:50;97857.34;;;22.14;39.38
57574;BME280;63722;48.858;21.906;2023-03-15T09:18:16;97857.91;;;22.11;39.31
57574;BME280;63722;48.858;21.906;2023-03-15T09:20:42;97864.84;;;22.07;39.29
57574;BME280;63722;48.858;21.906;2023-03-15T09:23:08;97870.50;;;21.95;39.26
57574;BME280;63722;48.858;21.906;2023-03-15T09:25:33;97869.94;;;21.98;39.76
57574;BME280;63722;48.858;21.906;2023-03-15T09:28:01;97879.25;;;22.06;39.96
57574;BME280;63722;48.858;21.906;2023-03-15T09:30:26;97885.91;;;22.13;39.86
57574;BME280;63722;48.858;21.906;2023-03-15T09:32:53;97878.16;;;22.17;39.53
57574;BME280;63722;48.858;21.906;2023-03-15T09:35:19;97882.97;;;22.15;39.90
57574;BME280;63722;48.858;21.906;2023-03-15T09:37:46;97888.31;;;22.15;40.00
57574;BME280;63722;48.858;21.906;2023-03-15T09:40:16;97891.50;;;22.22;39.80
57574;BME280;63722;48.858;21.906;2023-03-15T09:50:53;97896.03;;;22.22;39.91
57574;BME280;63722;48.858;21.906;2023-03-15T09:53:29;97897.63;;;22.23;39.92
57574;BME280;63722;48.858;21.906;2023-03-15T09:55:57;97902.47;;;22.15;40.15
57574;BME280;63722;48.858;21.906;2023-03-15T09:58:24;97899.25;;;22.13;39.87
57574;BME280;63722;48.858;21.906;2023-03-15T10:01:02;97902.19;;;22.17;40.05
57574;BME280;63722;48.858;21.906;2023-03-15T10:03:41;97913.69;;;22.12;40.09
57574;BME280;63722;48.858;21.906;2023-03-15T10:06:15;97904.88;;;22.12;40.31
57574;BME280;63722;48.858;21.906;2023-03-15T10:08:43;97915.56;;;22.07;40.12
57574;BME280;63722;48.858;21.906;2023-03-15T10:13:49;97904.88;;;22.12;40.36
57574;BME280;63722;48.858;21.906;2023-03-15T10:21:33;97906.72;;;22.22;39.95
57574;BME280;63722;48.858;21.906;2023-03-15T10:24:00;97913.91;;;22.26;39.76
57574;BME280;63722;48.858;21.906;2023-03-15T10:26:32;97921.94;;;22.21;39.78
57574;BME280;63722;48.858;21.906;2023-03-15T10:29:02;97915.28;;;22.18;39.73
57574;BME280;63722;48.858;21.906;2023-03-15T10:31:37;97920.63;;;22.18;39.80
57574;BME280;63722;48.858;21.906;2023-03-15T10:34:04;97919.81;;;22.13;39.62
57574;BME280;63722;48.858;21.906;2023-03-15T10:36:30;97916.03;;;22.24;39.79
57574;BME280;63722;48.858;21.906;2023-03-15T10:38:56;97923.78;;;22.26;39.50
57574;BME280;63722;48.858;21.906;2023-03-15T10:41:40;97925.94;;;22.24;39.49
57574;BME280;63722;48.858;21.906;2023-03-15T10:44:11;97936.66;;;22.18;39.57
57574;BME280;63722;48.858;21.906;2023-03-15T10:46:37;97934.75;;;22.19;39.57
57574;BME280;63722;48.858;21.906;2023-03-15T10:49:10;97942.75;;;22.24;39.67
57574;BME280;63722;48.858;21.906;2023-03-15T10:51:39;97944.94;;;22.17;39.69
57574;BME280;63722;48.858;21.906;2023-03-15T10:54:20;97946.25;;;22.20;39.59
57574;BME280;63722;48.858;21.906;2023-03-15T10:59:25;97946.53;;;22.13;39.74
57574;BME280;63722;48.858;21.906;2023-03-15T11:01:53;97946.50;;;22.18;39.72
57574;BME280;63722;48.858;21.906;2023-03-15T11:04:31;97946.00;;;22.16;39.39
57574;BME280;63722;48.858;21.906;2023-03-15T11:09:24;97942.53;;;22.15;39.70
57574;BME280;63722;48.858;21.906;2023-03-15T11:12:02;97948.63;;;22.21;39.32
57574;BME280;63722;48.858;21.906;2023-03-15T11:14:36;97955.88;;;22.15;39.41
57574;BME280;63722;48.858;21.906;2023-03-15T11:17:04;97964.38;;;22.23;39.46
57574;BME280;63722;48.858;21.906;2023-03-15T11:19:31;97955.03;;;22.25;39.39
57574;BME280;63722;48.858;21.906;2023-03-15T11:22:00;97955.59;;;22.12;39.54
57574;BME280;63722;48.858;21.906;2023-03-15T11:24:28;97952.97;;;22.07;40.24
57574;BME280;63722;48.858;21.906;2023-03-15T11:26:57;97961.25;;;22.05;40.63
57574;BME280;63722;48.858;21.906;2023-03-15T11:29:30;97967.38;;;22.06;41.10
57574;BME280;63722;48.858;21.906;2023-03-15T11:31:59;97964.13;;;22.19;41.38
57574;BME280;63722;48.858;21.906;2023-03-15T11:37:21;97967.59;;;22.25;41.61
57574;BME280;63722;48.858;21.906;2023-03-15T11:42:35;97968.66;;;22.34;41.81
57574;BME280;63722;48.858;21.906;2023-03-15T11:48:25;97978.00;;;22.42;41.75
57574;BME280;63722;48.858;21.906;2023-03-15T11:50:54;97971.00;;;22.46;41.76
57574;BME280;63722;48.858;21.906;2023-03-15T11:53:22;97981.69;;;22.56;41.75
57574;BME280;63722;48.858;21.906;2023-03-15T11:55:53;97981.91;;;22.60;41.79
57574;BME280;63722;48.858;21.906;2023-03-15T12:01:04;97990.16;;;22.68;41.83
57574;BME280;63722;48.858;21.906;2023-03-15T12:08:47;97990.41;;;22.77;41.76
57574;BME280;63722;48.858;21.906;2023-03-15T12:14:04;97989.09;;;22.69;41.83
57574;BME280;63722;48.858;21.906;2023-03-15T12:16:35;97984.03;;;22.68;41.97
57574;BME280;63722;48.858;21.906;2023-03-15T12:19:10;97977.09;;;22.67;41.85
57574;BME280;63722;48.858;21.906;2023-03-15T12:21:43;97971.50;;;22.63;41.71
57574;BME280;63722;48.858;21.906;2023-03-15T12:24:36;97974.69;;;22.65;41.82
57574;BME280;63722;48.858;21.906;2023-03-15T12:27:16;97964.78;;;22.66;42.03
57574;BME280;63722;48.858;21.906;2023-03-15T12:29:46;97974.38;;;22.72;41.66
57574;BME280;63722;48.858;21.906;2023-03-15T12:32:16;97968.22;;;22.77;41.84
57574;BME280;63722;48.858;21.906;2023-03-15T12:34:47;97962.38;;;22.69;41.97
57574;BME280;63722;48.858;21.906;2023-03-15T12:53:03;97984.50;;;22.80;42.05
57574;BME280;63722;48.858;21.906;2023-03-15T12:55:33;97984.75;;;22.84;41.79
57574;BME280;63722;48.858;21.906;2023-03-15T12:58:00;97982.63;;;22.81;41.94
57574;BME280;63722;48.858;21.906;2023-03-15T13:00:39;97979.97;;;22.81;42.22
57574;BME280;63722;48.858;21.906;2023-03-15T13:03:15;97975.63;;;22.90;42.03
57574;BME280;63722;48.858;21.906;2023-03-15T13:05:48;97981.28;;;22.78;41.99
57574;BME280;63722;48.858;21.906;2023-03-15T13:16:25;97992.53;;;22.80;42.26
57574;BME280;63722;48.858;21.906;2023-03-15T13:19:05;97994.06;;;22.92;42.01
57574;BME280;63722;48.858;21.906;2023-03-15T13:24:48;98002.59;;;22.99;41.91
57574;BME280;63722;48.858;21.906;2023-03-15T13:35:53;98015.47;;;22.92;42.10
57574;BME280;63722;48.858;21.906;2023-03-15T13:41:03;98018.44;;;22.80;42.35
57574;BME280;63722;48.858;21.906;2023-03-15T13:43:34;98023.78;;;22.80;42.68
57574;BME280;63722;48.858;21.906;2023-03-15T13:46:00;98022.69;;;22.86;42.43
57574;BME280;63722;48.858;21.906;2023-03-15T13:48:32;98020.00;;;22.91;42.47
57574;BME280;63722;48.858;21.906;2023-03-15T13:51:20;98023.19;;;22.93;42.41
57574;BME280;63722;48.858;21.906;2023-03-15T13:53:48;98029.34;;;22.94;42.40
57574;BME280;63722;48.858;21.906;2023-03-15T13:56:17;98038.19;;;22.89;42.37
57574;BME280;63722;48.858;21.906;2023-03-15T13:58:44;98041.13;;;22.87;42.53
57574;BME280;63722;48.858;21.906;2023-03-15T14:01:12;98034.72;;;22.88;42.58
57574;BME280;63722;48.858;21.906;2023-03-15T14:03:40;98037.16;;;22.85;42.54
57574;BME280;63722;48.858;21.906;2023-03-15T14:06:11;98037.38;;;22.94;42.41
57574;BME280;63722;48.858;21.906;2023-03-15T14:08:38;98034.13;;;23.02;42.49
57574;BME280;63722;48.858;21.906;2023-03-15T14:11:05;98041.59;;;23.05;42.15
57574;BME280;63722;48.858;21.906;2023-03-15T14:16:06;98044.56;;;23.03;42.45
57574;BME280;63722;48.858;21.906;2023-03-15T14:18:37;98041.41;;;22.86;42.53
57574;BME280;63722;48.858;21.906;2023-03-15T14:21:15;98037.63;;;22.92;42.50
57574;BME280;63722;48.858;21.906;2023-03-15T14:23:43;98038.47;;;22.93;42.67
57574;BME280;63722;48.858;21.906;2023-03-15T14:26:28;98045.63;;;23.02;42.47
57574;BME280;63722;48.858;21.906;2023-03-15T14:28:57;98044.84;;;22.97;42.47
57574;BME280;63722;48.858;21.906;2023-03-15T14:31:26;98048.03;;;23.04;42.53